This is the latest recevied weather packets stored in our database for station/object HA2SKA-1. If no packets are shown the sender has not sent any weather packets the latest 10 day(s).
| Time | Temp. | Humidity | Pressure | Rain* | Wind** | Luminosity | Snow |
|---|---|---|---|---|---|---|---|
| 1788576611 | 23.33° C | 100% | 1016.4 hPa | - | - | - | - |
| 1788575711 | 23.33° C | 99% | 1016.3 hPa | - | - | - | - |
| 1788574811 | 23.33° C | 99% | 1016.3 hPa | - | - | - | - |
| 1788573911 | 23.33° C | 100% | 1016.3 hPa | - | - | - | - |
| 1788573011 | 23.33° C | 98% | 1016.2 hPa | - | - | - | - |
| 1788572111 | 23.89° C | 92% | 1016 hPa | - | - | - | - |
| 1788571211 | 24.44° C | 87% | 1016 hPa | - | - | - | - |
| 1788570311 | 23.89° C | 91% | 1016 hPa | - | - | - | - |
| 1788569410 | 23.33° C | 93% | 1016.1 hPa | - | - | - | - |
| 1788568510 | 23.33° C | 92% | 1016.1 hPa | - | - | - | - |
| 1788567610 | 24.44° C | 82% | 1016.2 hPa | - | - | - | - |
| 1788566710 | 23.33° C | 88% | 1016.2 hPa | - | - | - | - |
| 1788565810 | 25° C | 75% | 1016.3 hPa | - | - | - | - |
| 1788564910 | 25° C | 75% | 1016.3 hPa | - | - | - | - |
| 1788564010 | 26.11° C | 70% | 1016.4 hPa | - | - | - | - |
| 1788563110 | 26.67° C | 66% | 1016.2 hPa | - | - | - | - |
| 1788562210 | 26.67° C | 66% | 1016.2 hPa | - | - | - | - |
| 1788561310 | 25.56° C | 70% | 1016.3 hPa | - | - | - | - |
| 1788560410 | 25.56° C | 69% | 1016.4 hPa | - | - | - | - |
| 1788559509 | 26.11° C | 66% | 1016.5 hPa | - | - | - | - |
| 1788558609 | 27.22° C | 63% | 1016.5 hPa | - | - | - | - |
| 1788557709 | 27.22° C | 61% | 1016.5 hPa | - | - | - | - |
| 1788556809 | 27.22° C | 63% | 1016.5 hPa | - | - | - | - |
| 1788555909 | 27.78° C | 61% | 1016.6 hPa | - | - | - | - |
| 1788555009 | 28.33° C | 60% | 1016.7 hPa | - | - | - | - |
* Rain since midnight (hover to see other rain measurements)
** Current wind speed in m/s (hover to see current wind gust speed)